sensor_id;sensor_type;location;lat;lon;timestamp;P1;durP1;ratioP1;P2;durP2;ratioP2
15104;SDS011;7653;48.994;9.212;2022-08-19T00:00:17;11.10;;;9.97;;
15104;SDS011;7653;48.994;9.212;2022-08-19T00:02:44;13.13;;;11.73;;
15104;SDS011;7653;48.994;9.212;2022-08-19T00:05:11;13.07;;;11.77;;
15104;SDS011;7653;48.994;9.212;2022-08-19T00:07:40;14.10;;;11.27;;
15104;SDS011;7653;48.994;9.212;2022-08-19T00:10:08;12.27;;;10.97;;
15104;SDS011;7653;48.994;9.212;2022-08-19T00:12:35;13.43;;;10.93;;
15104;SDS011;7653;48.994;9.212;2022-08-19T00:15:02;15.50;;;11.50;;
15104;SDS011;7653;48.994;9.212;2022-08-19T00:17:36;12.37;;;11.17;;
15104;SDS011;7653;48.994;9.212;2022-08-19T00:20:03;13.77;;;11.83;;
15104;SDS011;7653;48.994;9.212;2022-08-19T00:22:30;15.07;;;12.27;;
15104;SDS011;7653;48.994;9.212;2022-08-19T00:24:56;13.33;;;11.90;;
15104;SDS011;7653;48.994;9.212;2022-08-19T00:27:25;13.93;;;11.67;;
15104;SDS011;7653;48.994;9.212;2022-08-19T00:29:50;12.93;;;11.73;;
15104;SDS011;7653;48.994;9.212;2022-08-19T00:32:16;13.20;;;11.80;;
15104;SDS011;7653;48.994;9.212;2022-08-19T00:34:42;12.53;;;11.20;;
15104;SDS011;7653;48.994;9.212;2022-08-19T00:37:08;13.70;;;11.87;;
15104;SDS011;7653;48.994;9.212;2022-08-19T00:39:34;13.80;;;11.70;;
15104;SDS011;7653;48.994;9.212;2022-08-19T00:41:59;13.10;;;11.73;;
15104;SDS011;7653;48.994;9.212;2022-08-19T00:44:27;11.90;;;10.77;;
15104;SDS011;7653;48.994;9.212;2022-08-19T00:46:55;12.87;;;11.57;;
15104;SDS011;7653;48.994;9.212;2022-08-19T00:51:54;13.73;;;12.33;;
15104;SDS011;7653;48.994;9.212;2022-08-19T00:54:25;13.83;;;12.47;;
15104;SDS011;7653;48.994;9.212;2022-08-19T00:56:51;12.87;;;11.57;;
15104;SDS011;7653;48.994;9.212;2022-08-19T00:59:17;13.43;;;12.03;;
15104;SDS011;7653;48.994;9.212;2022-08-19T01:01:44;13.97;;;12.57;;
15104;SDS011;7653;48.994;9.212;2022-08-19T01:04:11;13.93;;;12.13;;
15104;SDS011;7653;48.994;9.212;2022-08-19T01:06:37;14.33;;;12.70;;
15104;SDS011;7653;48.994;9.212;2022-08-19T01:09:05;13.63;;;12.27;;
15104;SDS011;7653;48.994;9.212;2022-08-19T01:11:33;13.63;;;12.23;;
15104;SDS011;7653;48.994;9.212;2022-08-19T01:14:01;14.80;;;12.77;;
15104;SDS011;7653;48.994;9.212;2022-08-19T01:16:28;14.03;;;12.60;;
15104;SDS011;7653;48.994;9.212;2022-08-19T01:18:56;13.17;;;11.77;;
15104;SDS011;7653;48.994;9.212;2022-08-19T01:21:28;14.33;;;12.83;;
15104;SDS011;7653;48.994;9.212;2022-08-19T01:24:00;13.47;;;11.83;;
15104;SDS011;7653;48.994;9.212;2022-08-19T01:26:25;14.27;;;12.80;;
15104;SDS011;7653;48.994;9.212;2022-08-19T01:28:53;13.77;;;12.37;;
15104;SDS011;7653;48.994;9.212;2022-08-19T01:31:22;14.10;;;12.67;;
15104;SDS011;7653;48.994;9.212;2022-08-19T01:33:57;13.33;;;12.03;;
15104;SDS011;7653;48.994;9.212;2022-08-19T01:36:28;13.57;;;12.27;;
15104;SDS011;7653;48.994;9.212;2022-08-19T01:38:56;14.07;;;12.57;;
15104;SDS011;7653;48.994;9.212;2022-08-19T01:41:23;13.60;;;12.20;;
15104;SDS011;7653;48.994;9.212;2022-08-19T01:43:49;13.07;;;11.83;;
15104;SDS011;7653;48.994;9.212;2022-08-19T01:46:17;13.83;;;12.53;;
15104;SDS011;7653;48.994;9.212;2022-08-19T01:48:43;14.33;;;12.83;;
15104;SDS011;7653;48.994;9.212;2022-08-19T01:51:11;14.23;;;12.83;;
15104;SDS011;7653;48.994;9.212;2022-08-19T01:53:37;14.17;;;12.77;;
15104;SDS011;7653;48.994;9.212;2022-08-19T01:56:03;15.17;;;13.40;;
15104;SDS011;7653;48.994;9.212;2022-08-19T01:58:41;13.23;;;11.70;;
15104;SDS011;7653;48.994;9.212;2022-08-19T02:01:17;16.10;;;14.40;;
15104;SDS011;7653;48.994;9.212;2022-08-19T02:03:43;14.60;;;13.10;;
15104;SDS011;7653;48.994;9.212;2022-08-19T02:06:09;15.17;;;13.57;;
15104;SDS011;7653;48.994;9.212;2022-08-19T02:08:35;15.43;;;13.73;;
15104;SDS011;7653;48.994;9.212;2022-08-19T02:11:05;15.93;;;14.10;;
15104;SDS011;7653;48.994;9.212;2022-08-19T02:13:32;15.83;;;13.30;;
15104;SDS011;7653;48.994;9.212;2022-08-19T02:15:58;14.60;;;13.00;;
15104;SDS011;7653;48.994;9.212;2022-08-19T02:18:24;16.03;;;12.63;;
15104;SDS011;7653;48.994;9.212;2022-08-19T02:20:51;16.07;;;14.03;;
15104;SDS011;7653;48.994;9.212;2022-08-19T02:23:17;16.30;;;13.67;;
15104;SDS011;7653;48.994;9.212;2022-08-19T02:25:44;15.93;;;14.03;;
15104;SDS011;7653;48.994;9.212;2022-08-19T02:28:13;16.43;;;14.10;;
15104;SDS011;7653;48.994;9.212;2022-08-19T02:30:40;16.23;;;12.80;;
15104;SDS011;7653;48.994;9.212;2022-08-19T02:33:06;20.20;;;14.13;;
15104;SDS011;7653;48.994;9.212;2022-08-19T02:35:32;17.37;;;14.93;;
15104;SDS011;7653;48.994;9.212;2022-08-19T02:37:58;18.47;;;13.67;;
15104;SDS011;7653;48.994;9.212;2022-08-19T02:40:48;18.10;;;15.00;;
15104;SDS011;7653;48.994;9.212;2022-08-19T02:43:16;17.17;;;14.87;;
15104;SDS011;7653;48.994;9.212;2022-08-19T02:45:44;18.17;;;15.27;;
15104;SDS011;7653;48.994;9.212;2022-08-19T02:48:10;16.57;;;14.77;;
15104;SDS011;7653;48.994;9.212;2022-08-19T02:50:39;18.10;;;15.77;;
15104;SDS011;7653;48.994;9.212;2022-08-19T02:53:05;19.97;;;16.57;;
15104;SDS011;7653;48.994;9.212;2022-08-19T02:55:33;20.47;;;15.67;;
15104;SDS011;7653;48.994;9.212;2022-08-19T02:57:59;20.23;;;16.00;;
15104;SDS011;7653;48.994;9.212;2022-08-19T03:00:25;17.60;;;15.53;;
15104;SDS011;7653;48.994;9.212;2022-08-19T03:02:51;19.27;;;15.50;;
15104;SDS011;7653;48.994;9.212;2022-08-19T03:05:17;18.30;;;15.43;;
15104;SDS011;7653;48.994;9.212;2022-08-19T03:07:43;21.37;;;16.23;;
15104;SDS011;7653;48.994;9.212;2022-08-19T03:10:08;18.13;;;15.60;;
15104;SDS011;7653;48.994;9.212;2022-08-19T03:12:35;19.23;;;15.97;;
15104;SDS011;7653;48.994;9.212;2022-08-19T03:15:03;18.63;;;15.87;;
15104;SDS011;7653;48.994;9.212;2022-08-19T03:17:33;18.17;;;16.03;;
15104;SDS011;7653;48.994;9.212;2022-08-19T03:19:59;19.93;;;15.53;;
15104;SDS011;7653;48.994;9.212;2022-08-19T03:22:25;21.37;;;16.40;;
15104;SDS011;7653;48.994;9.212;2022-08-19T03:24:51;20.67;;;16.17;;
15104;SDS011;7653;48.994;9.212;2022-08-19T03:27:18;20.47;;;16.97;;
15104;SDS011;7653;48.994;9.212;2022-08-19T03:29:44;19.43;;;16.30;;
15104;SDS011;7653;48.994;9.212;2022-08-19T03:32:10;19.60;;;16.57;;
15104;SDS011;7653;48.994;9.212;2022-08-19T03:34:37;21.37;;;17.73;;
15104;SDS011;7653;48.994;9.212;2022-08-19T03:37:07;22.27;;;17.20;;
15104;SDS011;7653;48.994;9.212;2022-08-19T03:39:36;21.97;;;18.10;;
15104;SDS011;7653;48.994;9.212;2022-08-19T03:42:03;20.60;;;16.77;;
15104;SDS011;7653;48.994;9.212;2022-08-19T03:44:29;20.23;;;17.80;;
15104;SDS011;7653;48.994;9.212;2022-08-19T03:46:57;20.93;;;17.13;;
15104;SDS011;7653;48.994;9.212;2022-08-19T03:49:25;20.97;;;17.90;;
15104;SDS011;7653;48.994;9.212;2022-08-19T03:51:53;23.27;;;18.60;;
15104;SDS011;7653;48.994;9.212;2022-08-19T03:54:21;19.97;;;17.00;;
15104;SDS011;7653;48.994;9.212;2022-08-19T03:56:49;21.93;;;17.80;;
15104;SDS011;7653;48.994;9.212;2022-08-19T03:59:18;22.30;;;17.53;;
15104;SDS011;7653;48.994;9.212;2022-08-19T04:01:47;21.07;;;17.87;;
15104;SDS011;7653;48.994;9.212;2022-08-19T04:04:14;19.77;;;17.50;;
15104;SDS011;7653;48.994;9.212;2022-08-19T04:06:39;21.57;;;19.27;;
15104;SDS011;7653;48.994;9.212;2022-08-19T04:09:06;22.53;;;17.90;;
15104;SDS011;7653;48.994;9.212;2022-08-19T04:11:35;22.60;;;17.57;;
15104;SDS011;7653;48.994;9.212;2022-08-19T04:14:29;21.63;;;17.77;;
15104;SDS011;7653;48.994;9.212;2022-08-19T04:16:56;22.67;;;18.13;;
15104;SDS011;7653;48.994;9.212;2022-08-19T04:19:24;22.70;;;18.97;;
15104;SDS011;7653;48.994;9.212;2022-08-19T04:21:51;22.97;;;18.03;;
15104;SDS011;7653;48.994;9.212;2022-08-19T04:24:20;21.93;;;19.60;;
15104;SDS011;7653;48.994;9.212;2022-08-19T04:26:49;23.23;;;20.20;;
15104;SDS011;7653;48.994;9.212;2022-08-19T04:29:20;22.27;;;19.00;;
15104;SDS011;7653;48.994;9.212;2022-08-19T04:31:49;23.80;;;19.10;;
15104;SDS011;7653;48.994;9.212;2022-08-19T04:34:17;25.90;;;21.33;;
15104;SDS011;7653;48.994;9.212;2022-08-19T04:36:47;23.43;;;20.17;;
15104;SDS011;7653;48.994;9.212;2022-08-19T04:39:14;22.63;;;19.90;;
15104;SDS011;7653;48.994;9.212;2022-08-19T04:41:42;24.00;;;20.50;;
15104;SDS011;7653;48.994;9.212;2022-08-19T04:44:27;23.23;;;20.33;;
15104;SDS011;7653;48.994;9.212;2022-08-19T04:46:55;20.67;;;15.67;;
15104;SDS011;7653;48.994;9.212;2022-08-19T04:49:22;24.20;;;20.87;;
15104;SDS011;7653;48.994;9.212;2022-08-19T04:51:48;23.53;;;19.50;;
15104;SDS011;7653;48.994;9.212;2022-08-19T04:54:16;23.77;;;20.57;;
15104;SDS011;7653;48.994;9.212;2022-08-19T04:56:43;22.83;;;19.77;;
15104;SDS011;7653;48.994;9.212;2022-08-19T04:59:09;22.47;;;19.80;;
15104;SDS011;7653;48.994;9.212;2022-08-19T05:01:35;24.90;;;20.67;;
15104;SDS011;7653;48.994;9.212;2022-08-19T05:04:02;24.40;;;21.03;;
15104;SDS011;7653;48.994;9.212;2022-08-19T05:06:30;22.03;;;19.70;;
15104;SDS011;7653;48.994;9.212;2022-08-19T05:08:59;25.00;;;20.47;;
15104;SDS011;7653;48.994;9.212;2022-08-19T05:11:27;26.90;;;20.93;;
15104;SDS011;7653;48.994;9.212;2022-08-19T05:13:55;24.10;;;21.07;;
15104;SDS011;7653;48.994;9.212;2022-08-19T05:16:22;23.23;;;20.73;;
15104;SDS011;7653;48.994;9.212;2022-08-19T05:18:49;23.47;;;20.43;;
15104;SDS011;7653;48.994;9.212;2022-08-19T05:21:34;25.13;;;20.83;;
15104;SDS011;7653;48.994;9.212;2022-08-19T05:24:19;23.07;;;20.37;;
15104;SDS011;7653;48.994;9.212;2022-08-19T05:26:48;23.63;;;20.87;;
15104;SDS011;7653;48.994;9.212;2022-08-19T05:29:16;24.40;;;19.87;;
15104;SDS011;7653;48.994;9.212;2022-08-19T05:31:43;22.67;;;20.07;;
15104;SDS011;7653;48.994;9.212;2022-08-19T05:34:10;21.43;;;18.20;;
15104;SDS011;7653;48.994;9.212;2022-08-19T05:36:37;22.33;;;19.37;;
15104;SDS011;7653;48.994;9.212;2022-08-19T05:39:06;22.30;;;19.90;;
15104;SDS011;7653;48.994;9.212;2022-08-19T05:41:33;24.13;;;19.57;;
15104;SDS011;7653;48.994;9.212;2022-08-19T05:44:01;21.57;;;19.03;;
15104;SDS011;7653;48.994;9.212;2022-08-19T05:46:30;21.03;;;18.63;;
15104;SDS011;7653;48.994;9.212;2022-08-19T05:48:57;21.77;;;18.93;;
15104;SDS011;7653;48.994;9.212;2022-08-19T05:51:28;21.07;;;18.00;;
15104;SDS011;7653;48.994;9.212;2022-08-19T05:53:54;21.47;;;19.13;;
15104;SDS011;7653;48.994;9.212;2022-08-19T05:56:20;24.37;;;18.33;;
15104;SDS011;7653;48.994;9.212;2022-08-19T05:58:45;25.17;;;19.40;;
15104;SDS011;7653;48.994;9.212;2022-08-19T06:01:13;22.80;;;19.77;;
15104;SDS011;7653;48.994;9.212;2022-08-19T06:03:40;23.13;;;20.63;;
15104;SDS011;7653;48.994;9.212;2022-08-19T06:06:07;21.97;;;18.93;;
15104;SDS011;7653;48.994;9.212;2022-08-19T06:08:38;22.60;;;20.30;;
15104;SDS011;7653;48.994;9.212;2022-08-19T06:11:18;24.53;;;20.80;;
15104;SDS011;7653;48.994;9.212;2022-08-19T06:13:47;22.43;;;20.13;;
15104;SDS011;7653;48.994;9.212;2022-08-19T06:16:16;22.17;;;19.83;;
15104;SDS011;7653;48.994;9.212;2022-08-19T06:18:50;22.67;;;19.00;;
15104;SDS011;7653;48.994;9.212;2022-08-19T06:21:18;22.33;;;19.90;;
15104;SDS011;7653;48.994;9.212;2022-08-19T06:23:45;20.73;;;17.57;;
15104;SDS011;7653;48.994;9.212;2022-08-19T06:26:12;23.33;;;20.37;;
15104;SDS011;7653;48.994;9.212;2022-08-19T06:28:39;23.97;;;20.33;;
15104;SDS011;7653;48.994;9.212;2022-08-19T06:31:11;21.00;;;18.90;;
15104;SDS011;7653;48.994;9.212;2022-08-19T06:33:39;22.70;;;19.70;;
15104;SDS011;7653;48.994;9.212;2022-08-19T06:36:07;22.97;;;20.00;;
15104;SDS011;7653;48.994;9.212;2022-08-19T06:38:40;24.80;;;19.73;;
15104;SDS011;7653;48.994;9.212;2022-08-19T06:41:06;22.10;;;18.40;;
15104;SDS011;7653;48.994;9.212;2022-08-19T06:43:31;23.80;;;18.73;;
15104;SDS011;7653;48.994;9.212;2022-08-19T06:45:57;20.93;;;18.73;;
15104;SDS011;7653;48.994;9.212;2022-08-19T06:48:23;22.97;;;19.67;;
15104;SDS011;7653;48.994;9.212;2022-08-19T06:50:49;23.83;;;19.33;;
15104;SDS011;7653;48.994;9.212;2022-08-19T06:53:16;21.10;;;18.53;;
15104;SDS011;7653;48.994;9.212;2022-08-19T06:55:44;21.27;;;17.87;;
15104;SDS011;7653;48.994;9.212;2022-08-19T06:58:10;21.97;;;18.87;;
15104;SDS011;7653;48.994;9.212;2022-08-19T07:00:36;21.87;;;17.40;;
15104;SDS011;7653;48.994;9.212;2022-08-19T07:03:02;20.33;;;17.70;;
15104;SDS011;7653;48.994;9.212;2022-08-19T07:05:27;20.77;;;18.57;;
15104;SDS011;7653;48.994;9.212;2022-08-19T07:07:53;22.07;;;17.67;;
15104;SDS011;7653;48.994;9.212;2022-08-19T07:10:19;20.70;;;18.13;;
15104;SDS011;7653;48.994;9.212;2022-08-19T07:12:44;21.77;;;19.07;;
15104;SDS011;7653;48.994;9.212;2022-08-19T07:15:11;22.97;;;19.60;;
15104;SDS011;7653;48.994;9.212;2022-08-19T07:17:37;23.77;;;18.77;;
15104;SDS011;7653;48.994;9.212;2022-08-19T07:20:05;21.50;;;18.53;;
15104;SDS011;7653;48.994;9.212;2022-08-19T07:22:36;21.63;;;18.73;;
15104;SDS011;7653;48.994;9.212;2022-08-19T07:25:02;23.07;;;18.70;;
15104;SDS011;7653;48.994;9.212;2022-08-19T07:27:30;20.93;;;18.70;;
15104;SDS011;7653;48.994;9.212;2022-08-19T07:29:56;22.17;;;19.20;;
15104;SDS011;7653;48.994;9.212;2022-08-19T07:32:21;22.07;;;18.33;;
15104;SDS011;7653;48.994;9.212;2022-08-19T07:34:47;22.77;;;19.63;;
15104;SDS011;7653;48.994;9.212;2022-08-19T07:37:13;21.17;;;18.17;;
15104;SDS011;7653;48.994;9.212;2022-08-19T07:39:39;21.40;;;19.20;;
15104;SDS011;7653;48.994;9.212;2022-08-19T07:42:06;19.83;;;17.57;;
15104;SDS011;7653;48.994;9.212;2022-08-19T07:44:34;19.87;;;17.13;;
15104;SDS011;7653;48.994;9.212;2022-08-19T07:47:01;20.27;;;17.07;;
15104;SDS011;7653;48.994;9.212;2022-08-19T07:49:28;20.53;;;18.27;;
15104;SDS011;7653;48.994;9.212;2022-08-19T07:52:01;19.93;;;17.13;;
15104;SDS011;7653;48.994;9.212;2022-08-19T07:54:31;20.17;;;18.00;;
15104;SDS011;7653;48.994;9.212;2022-08-19T07:57:02;18.80;;;16.90;;
15104;SDS011;7653;48.994;9.212;2022-08-19T07:59:28;20.70;;;16.57;;
15104;SDS011;7653;48.994;9.212;2022-08-19T08:01:54;19.33;;;16.07;;
15104;SDS011;7653;48.994;9.212;2022-08-19T08:04:20;18.87;;;16.43;;
15104;SDS011;7653;48.994;9.212;2022-08-19T08:07:05;18.77;;;16.77;;
15104;SDS011;7653;48.994;9.212;2022-08-19T08:09:51;18.17;;;15.87;;
15104;SDS011;7653;48.994;9.212;2022-08-19T08:12:28;20.27;;;17.07;;
15104;SDS011;7653;48.994;9.212;2022-08-19T08:14:58;21.53;;;16.43;;
15104;SDS011;7653;48.994;9.212;2022-08-19T08:17:29;18.23;;;15.07;;
15104;SDS011;7653;48.994;9.212;2022-08-19T08:19:56;19.00;;;16.70;;
15104;SDS011;7653;48.994;9.212;2022-08-19T08:22:23;19.30;;;16.03;;
15104;SDS011;7653;48.994;9.212;2022-08-19T08:25:15;19.53;;;15.70;;
15104;SDS011;7653;48.994;9.212;2022-08-19T08:27:46;16.40;;;14.10;;
15104;SDS011;7653;48.994;9.212;2022-08-19T08:30:13;18.43;;;14.40;;
15104;SDS011;7653;48.994;9.212;2022-08-19T08:32:41;17.13;;;14.53;;
15104;SDS011;7653;48.994;9.212;2022-08-19T08:35:09;19.43;;;15.37;;
15104;SDS011;7653;48.994;9.212;2022-08-19T08:37:37;18.83;;;14.43;;
15104;SDS011;7653;48.994;9.212;2022-08-19T08:40:09;18.50;;;15.23;;
15104;SDS011;7653;48.994;9.212;2022-08-19T08:45:30;17.17;;;14.70;;
15104;SDS011;7653;48.994;9.212;2022-08-19T08:48:01;17.93;;;15.13;;
15104;SDS011;7653;48.994;9.212;2022-08-19T08:50:36;18.13;;;14.60;;
15104;SDS011;7653;48.994;9.212;2022-08-19T08:53:06;19.77;;;15.50;;
15104;SDS011;7653;48.994;9.212;2022-08-19T08:55:35;18.10;;;14.90;;
15104;SDS011;7653;48.994;9.212;2022-08-19T08:58:05;17.63;;;15.23;;
15104;SDS011;7653;48.994;9.212;2022-08-19T09:00:52;20.67;;;13.87;;
15104;SDS011;7653;48.994;9.212;2022-08-19T09:03:28;15.80;;;13.27;;
15104;SDS011;7653;48.994;9.212;2022-08-19T09:17:13;14.23;;;12.70;;
15104;SDS011;7653;48.994;9.212;2022-08-19T09:22:32;13.43;;;11.93;;
15104;SDS011;7653;48.994;9.212;2022-08-19T09:24:58;14.20;;;12.70;;
15104;SDS011;7653;48.994;9.212;2022-08-19T09:27:25;14.47;;;12.93;;
15104;SDS011;7653;48.994;9.212;2022-08-19T09:29:52;16.97;;;12.43;;
15104;SDS011;7653;48.994;9.212;2022-08-19T09:32:19;13.40;;;11.93;;
15104;SDS011;7653;48.994;9.212;2022-08-19T09:34:45;13.47;;;12.07;;
15104;SDS011;7653;48.994;9.212;2022-08-19T09:37:11;18.47;;;12.93;;
15104;SDS011;7653;48.994;9.212;2022-08-19T09:39:37;13.97;;;11.77;;
15104;SDS011;7653;48.994;9.212;2022-08-19T09:42:05;13.33;;;11.77;;
15104;SDS011;7653;48.994;9.212;2022-08-19T09:44:38;13.33;;;10.90;;
15104;SDS011;7653;48.994;9.212;2022-08-19T09:47:07;14.27;;;11.27;;
15104;SDS011;7653;48.994;9.212;2022-08-19T09:49:34;13.60;;;10.63;;
15104;SDS011;7653;48.994;9.212;2022-08-19T09:52:02;13.30;;;11.00;;
15104;SDS011;7653;48.994;9.212;2022-08-19T09:54:28;10.63;;;9.50;;
15104;SDS011;7653;48.994;9.212;2022-08-19T09:56:54;12.60;;;9.93;;
15104;SDS011;7653;48.994;9.212;2022-08-19T09:59:22;10.93;;;9.87;;
15104;SDS011;7653;48.994;9.212;2022-08-19T10:01:48;13.60;;;9.83;;
15104;SDS011;7653;48.994;9.212;2022-08-19T10:04:15;10.50;;;9.17;;
15104;SDS011;7653;48.994;9.212;2022-08-19T10:06:41;11.33;;;10.17;;
15104;SDS011;7653;48.994;9.212;2022-08-19T10:09:08;11.47;;;9.60;;
15104;SDS011;7653;48.994;9.212;2022-08-19T10:11:36;11.33;;;9.60;;
15104;SDS011;7653;48.994;9.212;2022-08-19T10:14:05;11.13;;;10.00;;
15104;SDS011;7653;48.994;9.212;2022-08-19T10:16:31;13.07;;;10.07;;
15104;SDS011;7653;48.994;9.212;2022-08-19T10:18:58;12.57;;;9.43;;
15104;SDS011;7653;48.994;9.212;2022-08-19T10:21:25;9.90;;;9.00;;
15104;SDS011;7653;48.994;9.212;2022-08-19T10:23:56;10.63;;;8.73;;
15104;SDS011;7653;48.994;9.212;2022-08-19T10:26:24;11.33;;;8.60;;
15104;SDS011;7653;48.994;9.212;2022-08-19T10:28:56;9.30;;;8.33;;
15104;SDS011;7653;48.994;9.212;2022-08-19T10:31:26;8.57;;;7.67;;
15104;SDS011;7653;48.994;9.212;2022-08-19T10:33:54;9.37;;;6.97;;
15104;SDS011;7653;48.994;9.212;2022-08-19T10:36:25;10.17;;;7.40;;
15104;SDS011;7653;48.994;9.212;2022-08-19T10:38:54;8.77;;;6.60;;
15104;SDS011;7653;48.994;9.212;2022-08-19T10:41:25;7.23;;;6.47;;
15104;SDS011;7653;48.994;9.212;2022-08-19T10:43:58;6.23;;;5.63;;
15104;SDS011;7653;48.994;9.212;2022-08-19T10:46:28;8.00;;;5.67;;
15104;SDS011;7653;48.994;9.212;2022-08-19T10:48:58;7.03;;;6.03;;
15104;SDS011;7653;48.994;9.212;2022-08-19T10:51:26;6.37;;;5.73;;
15104;SDS011;7653;48.994;9.212;2022-08-19T10:54:11;8.47;;;5.70;;
15104;SDS011;7653;48.994;9.212;2022-08-19T10:56:38;6.93;;;5.50;;
15104;SDS011;7653;48.994;9.212;2022-08-19T10:59:25;7.67;;;5.53;;
15104;SDS011;7653;48.994;9.212;2022-08-19T11:01:54;6.10;;;5.60;;
15104;SDS011;7653;48.994;9.212;2022-08-19T11:04:24;6.37;;;5.50;;
15104;SDS011;7653;48.994;9.212;2022-08-19T11:06:50;6.70;;;5.50;;
15104;SDS011;7653;48.994;9.212;2022-08-19T11:09:16;5.10;;;4.50;;
15104;SDS011;7653;48.994;9.212;2022-08-19T11:11:44;6.90;;;5.33;;
15104;SDS011;7653;48.994;9.212;2022-08-19T11:14:13;7.53;;;6.23;;
15104;SDS011;7653;48.994;9.212;2022-08-19T11:16:41;7.47;;;6.43;;
15104;SDS011;7653;48.994;9.212;2022-08-19T11:19:08;9.43;;;6.67;;
15104;SDS011;7653;48.994;9.212;2022-08-19T11:21:36;6.60;;;6.00;;
15104;SDS011;7653;48.994;9.212;2022-08-19T11:24:05;10.57;;;6.77;;
15104;SDS011;7653;48.994;9.212;2022-08-19T11:26:32;8.30;;;6.50;;
15104;SDS011;7653;48.994;9.212;2022-08-19T11:28:58;9.73;;;6.93;;
15104;SDS011;7653;48.994;9.212;2022-08-19T11:31:30;7.60;;;6.80;;
15104;SDS011;7653;48.994;9.212;2022-08-19T11:33:59;7.13;;;6.43;;
15104;SDS011;7653;48.994;9.212;2022-08-19T11:36:27;8.43;;;6.00;;
15104;SDS011;7653;48.994;9.212;2022-08-19T11:38:58;6.67;;;5.40;;
15104;SDS011;7653;48.994;9.212;2022-08-19T11:41:25;8.33;;;5.97;;
15104;SDS011;7653;48.994;9.212;2022-08-19T11:43:52;7.00;;;6.30;;
15104;SDS011;7653;48.994;9.212;2022-08-19T11:46:20;8.27;;;6.07;;
15104;SDS011;7653;48.994;9.212;2022-08-19T11:48:47;8.23;;;5.80;;
15104;SDS011;7653;48.994;9.212;2022-08-19T11:51:16;7.83;;;5.90;;
15104;SDS011;7653;48.994;9.212;2022-08-19T11:53:44;7.43;;;6.50;;
15104;SDS011;7653;48.994;9.212;2022-08-19T11:56:11;7.43;;;6.30;;
15104;SDS011;7653;48.994;9.212;2022-08-19T11:58:39;7.53;;;6.33;;
15104;SDS011;7653;48.994;9.212;2022-08-19T12:01:10;9.17;;;6.67;;
15104;SDS011;7653;48.994;9.212;2022-08-19T12:03:39;9.83;;;7.13;;
15104;SDS011;7653;48.994;9.212;2022-08-19T12:06:09;7.30;;;6.27;;
15104;SDS011;7653;48.994;9.212;2022-08-19T12:08:40;7.27;;;6.00;;
15104;SDS011;7653;48.994;9.212;2022-08-19T12:11:06;8.37;;;6.30;;
15104;SDS011;7653;48.994;9.212;2022-08-19T12:13:35;6.97;;;6.20;;
15104;SDS011;7653;48.994;9.212;2022-08-19T12:16:09;7.30;;;6.60;;
15104;SDS011;7653;48.994;9.212;2022-08-19T12:18:38;8.40;;;6.57;;
15104;SDS011;7653;48.994;9.212;2022-08-19T12:21:06;7.77;;;6.30;;
15104;SDS011;7653;48.994;9.212;2022-08-19T12:23:31;8.80;;;6.50;;
15104;SDS011;7653;48.994;9.212;2022-08-19T12:25:57;7.00;;;6.33;;
15104;SDS011;7653;48.994;9.212;2022-08-19T12:28:23;10.60;;;6.77;;
15104;SDS011;7653;48.994;9.212;2022-08-19T12:30:50;7.80;;;6.30;;
15104;SDS011;7653;48.994;9.212;2022-08-19T12:33:16;8.27;;;6.50;;
15104;SDS011;7653;48.994;9.212;2022-08-19T12:35:44;6.73;;;5.37;;
15104;SDS011;7653;48.994;9.212;2022-08-19T12:38:12;5.60;;;5.10;;
15104;SDS011;7653;48.994;9.212;2022-08-19T12:40:39;7.93;;;6.10;;
15104;SDS011;7653;48.994;9.212;2022-08-19T12:43:15;7.83;;;6.17;;
15104;SDS011;7653;48.994;9.212;2022-08-19T12:45:44;7.03;;;6.30;;
15104;SDS011;7653;48.994;9.212;2022-08-19T12:48:17;7.27;;;6.37;;
15104;SDS011;7653;48.994;9.212;2022-08-19T12:50:47;10.20;;;7.40;;
15104;SDS011;7653;48.994;9.212;2022-08-19T12:53:30;8.37;;;7.20;;
15104;SDS011;7653;48.994;9.212;2022-08-19T12:56:08;8.73;;;7.90;;
15104;SDS011;7653;48.994;9.212;2022-08-19T12:58:49;10.50;;;8.53;;
15104;SDS011;7653;48.994;9.212;2022-08-19T13:01:16;9.83;;;8.80;;
15104;SDS011;7653;48.994;9.212;2022-08-19T13:03:51;11.30;;;8.40;;
15104;SDS011;7653;48.994;9.212;2022-08-19T13:06:28;9.67;;;8.67;;
15104;SDS011;7653;48.994;9.212;2022-08-19T13:08:55;9.47;;;8.57;;
15104;SDS011;7653;48.994;9.212;2022-08-19T13:11:22;10.13;;;9.00;;
15104;SDS011;7653;48.994;9.212;2022-08-19T13:13:53;10.50;;;8.47;;
15104;SDS011;7653;48.994;9.212;2022-08-19T13:16:20;9.77;;;8.73;;
15104;SDS011;7653;48.994;9.212;2022-08-19T13:18:47;10.67;;;9.63;;
15104;SDS011;7653;48.994;9.212;2022-08-19T13:21:18;10.10;;;9.03;;
15104;SDS011;7653;48.994;9.212;2022-08-19T13:24:10;9.47;;;8.67;;
15104;SDS011;7653;48.994;9.212;2022-08-19T13:26:59;9.93;;;9.03;;
15104;SDS011;7653;48.994;9.212;2022-08-19T13:29:28;10.57;;;8.10;;
15104;SDS011;7653;48.994;9.212;2022-08-19T13:32:15;9.50;;;8.60;;
15104;SDS011;7653;48.994;9.212;2022-08-19T13:35:01;9.20;;;8.00;;
15104;SDS011;7653;48.994;9.212;2022-08-19T13:37:28;9.07;;;8.27;;
15104;SDS011;7653;48.994;9.212;2022-08-19T13:42:41;6.83;;;6.27;;
15104;SDS011;7653;48.994;9.212;2022-08-19T13:45:09;9.07;;;7.90;;
15104;SDS011;7653;48.994;9.212;2022-08-19T13:47:35;9.27;;;8.37;;
15104;SDS011;7653;48.994;9.212;2022-08-19T13:50:12;8.83;;;8.03;;
15104;SDS011;7653;48.994;9.212;2022-08-19T13:52:41;9.20;;;7.63;;
15104;SDS011;7653;48.994;9.212;2022-08-19T13:55:08;8.47;;;7.27;;
15104;SDS011;7653;48.994;9.212;2022-08-19T13:57:35;7.60;;;6.77;;
15104;SDS011;7653;48.994;9.212;2022-08-19T14:00:03;8.80;;;7.87;;
15104;SDS011;7653;48.994;9.212;2022-08-19T14:02:30;10.27;;;9.23;;
15104;SDS011;7653;48.994;9.212;2022-08-19T14:04:58;10.50;;;9.40;;
15104;SDS011;7653;48.994;9.212;2022-08-19T14:07:24;8.90;;;8.00;;
15104;SDS011;7653;48.994;9.212;2022-08-19T14:09:50;8.93;;;8.00;;
15104;SDS011;7653;48.994;9.212;2022-08-19T14:12:19;13.87;;;12.43;;
15104;SDS011;7653;48.994;9.212;2022-08-19T14:14:45;9.20;;;8.30;;
15104;SDS011;7653;48.994;9.212;2022-08-19T14:17:11;9.60;;;8.40;;
15104;SDS011;7653;48.994;9.212;2022-08-19T14:19:37;9.13;;;8.23;;
15104;SDS011;7653;48.994;9.212;2022-08-19T14:22:02;8.70;;;7.90;;
15104;SDS011;7653;48.994;9.212;2022-08-19T14:24:30;8.57;;;7.77;;
15104;SDS011;7653;48.994;9.212;2022-08-19T14:26:57;8.47;;;7.63;;
15104;SDS011;7653;48.994;9.212;2022-08-19T14:29:24;8.87;;;7.97;;
15104;SDS011;7653;48.994;9.212;2022-08-19T14:31:52;8.67;;;7.90;;
15104;SDS011;7653;48.994;9.212;2022-08-19T14:34:25;9.13;;;8.17;;
15104;SDS011;7653;48.994;9.212;2022-08-19T14:36:51;9.57;;;7.23;;
15104;SDS011;7653;48.994;9.212;2022-08-19T14:39:17;9.93;;;7.87;;
15104;SDS011;7653;48.994;9.212;2022-08-19T14:41:43;11.50;;;9.47;;
15104;SDS011;7653;48.994;9.212;2022-08-19T14:44:09;11.10;;;9.00;;
15104;SDS011;7653;48.994;9.212;2022-08-19T14:46:37;15.63;;;9.53;;
15104;SDS011;7653;48.994;9.212;2022-08-19T14:49:03;12.10;;;9.93;;
15104;SDS011;7653;48.994;9.212;2022-08-19T14:51:29;14.17;;;11.17;;
15104;SDS011;7653;48.994;9.212;2022-08-19T14:53:56;14.73;;;12.43;;
15104;SDS011;7653;48.994;9.212;2022-08-19T14:56:23;15.27;;;13.00;;
15104;SDS011;7653;48.994;9.212;2022-08-19T14:58:51;14.63;;;13.03;;
15104;SDS011;7653;48.994;9.212;2022-08-19T15:01:18;14.67;;;13.13;;
15104;SDS011;7653;48.994;9.212;2022-08-19T15:03:45;13.80;;;12.40;;
15104;SDS011;7653;48.994;9.212;2022-08-19T15:06:12;18.17;;;14.37;;
15104;SDS011;7653;48.994;9.212;2022-08-19T15:08:39;17.50;;;13.47;;
15104;SDS011;7653;48.994;9.212;2022-08-19T15:11:09;16.53;;;14.17;;